createdAt,value
2023-08-22T00:00:33.674Z,25.18
2023-08-22T00:03:00.399Z,25.21
2023-08-22T00:05:27.144Z,25.20
2023-08-22T00:07:54.751Z,25.19
2023-08-22T00:10:21.451Z,25.18
2023-08-22T00:12:48.401Z,25.10
2023-08-22T00:15:15.046Z,25.09
2023-08-22T00:17:44.295Z,25.10
2023-08-22T00:20:13.311Z,25.06
2023-08-22T00:22:39.934Z,24.98
2023-08-22T00:25:08.222Z,25.06
2023-08-22T00:27:35.742Z,25.00
2023-08-22T00:30:03.120Z,24.94
2023-08-22T00:32:30.681Z,24.90
2023-08-22T00:34:57.799Z,24.92
2023-08-22T00:37:24.648Z,24.93
2023-08-22T00:39:51.576Z,24.91
2023-08-22T00:42:19.222Z,24.77
2023-08-22T00:44:47.578Z,24.73
2023-08-22T00:47:15.168Z,24.69
2023-08-22T00:49:42.316Z,24.71
2023-08-22T00:52:10.066Z,24.66
2023-08-22T00:54:36.705Z,24.60
2023-08-22T00:57:04.472Z,24.52
2023-08-22T00:59:31.733Z,24.52
2023-08-22T01:01:58.861Z,24.50
2023-08-22T01:04:25.524Z,24.32
2023-08-22T01:06:59.465Z,24.15
2023-08-22T01:09:34.829Z,24.06
2023-08-22T01:12:28.549Z,24.02
2023-08-22T01:15:15.713Z,24.05
2023-08-22T01:17:43.996Z,23.94
2023-08-22T01:20:14.079Z,23.91
2023-08-22T01:22:44.479Z,23.95
2023-08-22T01:25:11.427Z,23.92
2023-08-22T01:27:45.473Z,23.87
2023-08-22T01:30:19.829Z,23.97
2023-08-22T01:32:50.435Z,23.95
2023-08-22T01:35:23.821Z,24.02
2023-08-22T01:37:55.086Z,24.00
2023-08-22T01:40:24.752Z,23.94
2023-08-22T01:42:51.871Z,23.94
2023-08-22T01:45:18.782Z,23.99
2023-08-22T01:47:45.433Z,23.90
2023-08-22T01:50:12.368Z,23.87
2023-08-22T01:52:39.263Z,23.87
2023-08-22T01:55:06.721Z,23.82
2023-08-22T01:57:33.566Z,23.72
2023-08-22T02:00:00.343Z,23.66
2023-08-22T02:02:27.060Z,23.52
2023-08-22T02:04:53.766Z,23.50
2023-08-22T02:07:20.460Z,23.48
2023-08-22T02:09:47.174Z,23.47
2023-08-22T02:12:13.843Z,23.47
2023-08-22T02:14:40.412Z,23.44
2023-08-22T02:17:08.126Z,23.38
2023-08-22T02:19:34.726Z,23.33
2023-08-22T02:22:02.945Z,23.35
2023-08-22T02:24:30.783Z,23.37
2023-08-22T02:26:57.499Z,23.26
2023-08-22T02:29:24.147Z,23.25
2023-08-22T02:31:50.849Z,23.27
2023-08-22T02:34:17.628Z,23.28
2023-08-22T02:36:44.302Z,23.29
2023-08-22T02:39:10.893Z,23.31
2023-08-22T02:41:37.516Z,23.33
2023-08-22T02:44:04.790Z,23.34
2023-08-22T02:46:31.951Z,23.26
2023-08-22T02:48:58.931Z,23.31
2023-08-22T02:51:25.620Z,23.21
2023-08-22T02:53:52.224Z,23.28
2023-08-22T02:56:18.848Z,23.21
2023-08-22T02:58:47.689Z,23.25
2023-08-22T03:01:14.311Z,23.32
2023-08-22T03:03:41.000Z,23.30
2023-08-22T03:06:07.821Z,23.22
2023-08-22T03:08:34.420Z,23.30
2023-08-22T03:11:02.214Z,23.28
2023-08-22T03:13:31.791Z,23.28
2023-08-22T03:15:59.465Z,23.26
2023-08-22T03:18:27.180Z,23.29
2023-08-22T03:20:55.889Z,23.28
2023-08-22T03:23:22.465Z,23.34
2023-08-22T03:25:56.961Z,23.27
2023-08-22T03:28:23.630Z,23.30
2023-08-22T03:30:55.635Z,23.25
2023-08-22T03:33:25.961Z,23.17
2023-08-22T03:35:55.028Z,23.21
2023-08-22T03:38:22.054Z,23.17
2023-08-22T03:40:52.069Z,23.15
2023-08-22T03:43:21.523Z,23.17
2023-08-22T03:45:48.799Z,23.07
2023-08-22T03:48:16.749Z,23.10
2023-08-22T03:50:44.035Z,23.07
2023-08-22T03:53:11.976Z,23.04
2023-08-22T03:55:38.870Z,22.96
2023-08-22T03:58:06.233Z,22.92
2023-08-22T04:00:33.020Z,22.92
2023-08-22T04:03:00.532Z,22.88
2023-08-22T04:05:27.486Z,22.75
2023-08-22T04:07:54.299Z,22.84
2023-08-22T04:10:21.247Z,22.79
2023-08-22T04:12:47.907Z,22.66
2023-08-22T04:15:15.961Z,22.65
2023-08-22T04:17:49.839Z,22.72
2023-08-22T04:20:18.390Z,22.64
2023-08-22T04:22:45.053Z,22.66
2023-08-22T04:25:11.763Z,22.57
2023-08-22T04:27:40.429Z,22.56
2023-08-22T04:30:08.418Z,22.56
2023-08-22T04:32:35.694Z,22.63
2023-08-22T04:35:02.298Z,22.25
2023-08-22T04:37:28.927Z,22.36
2023-08-22T04:39:55.627Z,22.34
2023-08-22T04:42:22.305Z,22.54
2023-08-22T04:44:48.977Z,22.52
2023-08-22T04:47:15.589Z,22.71
2023-08-22T04:49:42.329Z,22.72
2023-08-22T04:52:09.210Z,22.68
2023-08-22T04:54:36.012Z,22.80
2023-08-22T04:57:02.600Z,22.81
2023-08-22T04:59:29.272Z,22.81
2023-08-22T05:01:55.946Z,22.83
2023-08-22T05:04:22.872Z,22.95
2023-08-22T05:06:49.457Z,23.06
2023-08-22T05:09:16.601Z,22.99
2023-08-22T05:11:44.434Z,23.02
2023-08-22T05:14:12.323Z,23.09
2023-08-22T05:16:40.213Z,23.09
2023-08-22T05:19:07.248Z,23.17
2023-08-22T05:21:34.104Z,23.17
2023-08-22T05:24:00.803Z,23.29
2023-08-22T05:26:29.029Z,23.37
2023-08-22T05:28:55.681Z,23.42
2023-08-22T05:31:25.872Z,23.49
2023-08-22T05:33:52.766Z,23.58
2023-08-22T05:36:19.521Z,23.58
2023-08-22T05:38:48.374Z,23.71
2023-08-22T05:41:15.819Z,23.79
2023-08-22T05:43:42.544Z,23.90
2023-08-22T05:46:09.577Z,24.07
2023-08-22T05:48:36.285Z,24.10
2023-08-22T05:51:03.896Z,24.17
2023-08-22T05:53:30.849Z,24.10
2023-08-22T05:55:58.008Z,24.28
2023-08-22T05:58:24.582Z,24.35
2023-08-22T06:00:51.289Z,24.43
2023-08-22T06:03:19.370Z,24.34
2023-08-22T06:05:48.907Z,24.42
2023-08-22T06:08:15.528Z,24.38
2023-08-22T06:10:44.826Z,24.36
2023-08-22T06:13:11.884Z,24.35
2023-08-22T06:15:38.542Z,24.34
2023-08-22T06:18:05.453Z,24.60
2023-08-22T06:20:32.086Z,24.68
2023-08-22T06:22:58.727Z,24.89
2023-08-22T06:25:27.873Z,24.86
2023-08-22T06:27:55.529Z,24.83
2023-08-22T06:30:22.256Z,25.00
2023-08-22T06:32:49.148Z,25.25
2023-08-22T06:35:15.960Z,25.30
2023-08-22T06:37:42.878Z,25.22
2023-08-22T06:40:10.234Z,25.54
2023-08-22T06:42:36.872Z,25.65
2023-08-22T06:45:04.045Z,25.74
2023-08-22T06:47:30.830Z,25.78
2023-08-22T06:49:57.458Z,25.94
2023-08-22T06:52:26.106Z,26.00
2023-08-22T06:54:52.754Z,26.10
2023-08-22T06:57:19.359Z,26.25
2023-08-22T06:59:46.040Z,26.35
2023-08-22T07:02:12.892Z,26.33
2023-08-22T07:04:39.636Z,26.25
2023-08-22T07:07:06.513Z,26.22
2023-08-22T07:09:33.181Z,26.57
2023-08-22T07:11:59.966Z,26.56
2023-08-22T07:14:27.441Z,26.52
2023-08-22T07:16:54.186Z,26.56
2023-08-22T07:19:31.607Z,26.77
2023-08-22T07:22:06.035Z,26.91
2023-08-22T07:24:32.704Z,27.01
2023-08-22T07:26:59.372Z,27.08
2023-08-22T07:29:26.008Z,26.91
2023-08-22T07:31:53.722Z,27.01
2023-08-22T07:34:20.495Z,26.84
2023-08-22T07:36:47.123Z,26.96
2023-08-22T07:39:13.782Z,27.20
2023-08-22T07:41:40.717Z,27.43
2023-08-22T07:44:07.374Z,27.18
2023-08-22T07:46:34.123Z,27.33
2023-08-22T07:49:00.741Z,27.86
2023-08-22T07:51:27.418Z,27.42
2023-08-22T07:53:54.597Z,27.65
2023-08-22T07:56:21.247Z,27.88
2023-08-22T07:58:49.020Z,28.21
2023-08-22T08:01:15.941Z,28.42
2023-08-22T08:03:42.839Z,27.79
2023-08-22T08:06:09.598Z,27.99
2023-08-22T08:08:36.470Z,28.36
2023-08-22T08:11:03.673Z,28.29
2023-08-22T08:13:30.312Z,28.05
2023-08-22T08:16:06.165Z,28.18
2023-08-22T08:18:33.750Z,28.67
2023-08-22T08:21:00.506Z,28.29
2023-08-22T08:23:28.354Z,28.99
2023-08-22T08:25:55.212Z,29.17
2023-08-22T08:28:21.869Z,29.38
2023-08-22T08:30:48.497Z,29.29
2023-08-22T08:33:15.187Z,29.48
2023-08-22T08:35:41.814Z,29.26
2023-08-22T08:38:08.919Z,29.50
2023-08-22T08:40:37.460Z,29.55
2023-08-22T08:43:07.064Z,28.94
2023-08-22T08:45:34.919Z,29.57
2023-08-22T08:48:03.432Z,29.52
2023-08-22T08:50:31.837Z,29.83
2023-08-22T08:52:59.408Z,29.82
2023-08-22T08:55:26.126Z,29.89
2023-08-22T08:57:53.387Z,30.14
2023-08-22T09:00:20.259Z,30.24
2023-08-22T09:02:47.000Z,30.58
2023-08-22T09:05:13.746Z,30.52
2023-08-22T09:07:40.918Z,30.58
2023-08-22T09:10:07.956Z,30.44
2023-08-22T09:12:36.566Z,30.49
2023-08-22T09:15:07.786Z,30.29
2023-08-22T09:17:34.482Z,30.57
2023-08-22T09:20:10.601Z,30.35
2023-08-22T09:22:37.260Z,30.36
2023-08-22T09:25:05.570Z,30.40
2023-08-22T09:27:32.250Z,30.55
2023-08-22T09:30:02.176Z,30.83
2023-08-22T09:32:28.923Z,30.97
2023-08-22T09:34:57.612Z,30.99
2023-08-22T09:37:32.004Z,31.08
2023-08-22T09:39:59.256Z,31.44
2023-08-22T09:42:30.674Z,31.40
2023-08-22T09:44:58.666Z,31.51
2023-08-22T09:47:40.909Z,31.35
2023-08-22T09:50:08.666Z,31.53
2023-08-22T09:52:38.393Z,31.65
2023-08-22T09:55:07.298Z,31.79
2023-08-22T09:57:34.847Z,32.06
2023-08-22T10:00:02.076Z,31.93
2023-08-22T10:02:30.460Z,32.02
2023-08-22T10:04:57.131Z,32.09
2023-08-22T10:07:24.983Z,32.09
2023-08-22T10:09:51.639Z,32.24
2023-08-22T10:12:18.999Z,32.17
2023-08-22T10:14:51.872Z,32.38
2023-08-22T10:17:18.558Z,32.32
2023-08-22T10:19:46.002Z,31.83
2023-08-22T10:22:14.670Z,32.32
2023-08-22T10:24:42.591Z,32.15
2023-08-22T10:27:13.636Z,31.98
2023-08-22T10:29:47.968Z,31.81
2023-08-22T10:32:14.525Z,31.29
2023-08-22T10:34:41.665Z,31.64
2023-08-22T10:37:19.601Z,32.13
2023-08-22T10:39:48.209Z,31.73
2023-08-22T10:42:14.965Z,31.77
2023-08-22T10:44:43.597Z,32.03
2023-08-22T10:47:25.688Z,32.32
2023-08-22T10:52:37.561Z,32.23
2023-08-22T10:55:04.520Z,32.29
2023-08-22T10:57:35.211Z,32.81
2023-08-22T11:00:14.421Z,33.23
2023-08-22T11:02:43.774Z,33.43
2023-08-22T11:05:12.560Z,32.72
2023-08-22T11:07:43.839Z,33.20
2023-08-22T11:10:15.523Z,33.61
2023-08-22T11:12:42.520Z,33.59
2023-08-22T11:15:09.558Z,33.64
2023-08-22T11:17:40.868Z,33.70
2023-08-22T11:20:26.771Z,33.76
2023-08-22T11:22:54.838Z,33.79
2023-08-22T11:25:27.077Z,32.96
2023-08-22T11:27:54.095Z,33.33
2023-08-22T11:30:21.614Z,33.58
2023-08-22T11:32:49.562Z,33.43
2023-08-22T11:35:17.276Z,34.19
2023-08-22T11:37:44.702Z,34.85
2023-08-22T11:40:16.798Z,34.21
2023-08-22T11:42:44.051Z,33.69
2023-08-22T11:45:15.092Z,34.00
2023-08-22T11:47:43.678Z,34.17
2023-08-22T11:50:24.326Z,33.99
2023-08-22T11:52:57.378Z,33.63
2023-08-22T11:55:28.736Z,34.99
2023-08-22T11:57:57.906Z,34.14
2023-08-22T12:00:27.312Z,34.21
2023-08-22T12:02:55.496Z,34.23
2023-08-22T12:05:42.522Z,33.90
2023-08-22T12:08:12.092Z,34.38
2023-08-22T12:10:39.507Z,34.55
2023-08-22T12:13:06.247Z,34.46
2023-08-22T12:15:33.513Z,33.84
2023-08-22T12:18:00.718Z,35.06
2023-08-22T12:20:27.448Z,35.31
2023-08-22T12:22:54.697Z,35.38
2023-08-22T12:25:21.420Z,34.81
2023-08-22T12:27:48.268Z,35.41
2023-08-22T12:30:15.005Z,34.85
2023-08-22T12:32:46.020Z,35.05
2023-08-22T12:35:12.986Z,34.94
2023-08-22T12:37:40.573Z,34.95
2023-08-22T12:40:13.555Z,35.78
2023-08-22T12:42:41.160Z,35.40
2023-08-22T12:45:12.041Z,35.14
2023-08-22T12:47:39.754Z,34.69
2023-08-22T12:50:07.695Z,34.65
2023-08-22T12:52:34.644Z,35.87
2023-08-22T12:55:02.880Z,35.69
2023-08-22T12:57:29.767Z,34.99
2023-08-22T12:59:56.455Z,33.36
2023-08-22T13:02:25.302Z,34.19
2023-08-22T13:04:52.124Z,33.61
2023-08-22T13:07:19.000Z,34.85
2023-08-22T13:09:45.652Z,34.13
2023-08-22T13:12:15.248Z,34.68
2023-08-22T13:14:41.898Z,34.70
2023-08-22T13:17:08.498Z,34.34
2023-08-22T13:19:35.104Z,34.53
2023-08-22T13:22:01.700Z,34.53
2023-08-22T13:24:28.618Z,34.56
2023-08-22T13:26:55.216Z,34.35
2023-08-22T13:29:21.865Z,34.40
2023-08-22T13:31:48.932Z,33.63
2023-08-22T13:34:15.608Z,34.56
2023-08-22T13:36:42.265Z,33.72
2023-08-22T13:39:08.864Z,33.62
2023-08-22T13:41:36.408Z,34.33
2023-08-22T13:44:04.141Z,33.75
2023-08-22T13:46:31.265Z,33.52
2023-08-22T13:48:57.957Z,33.95
2023-08-22T13:51:24.855Z,33.93
2023-08-22T13:53:51.525Z,34.17
2023-08-22T13:56:18.360Z,33.77
2023-08-22T13:58:44.957Z,33.96
2023-08-22T14:01:11.919Z,34.11
2023-08-22T14:03:38.711Z,34.30
2023-08-22T14:06:05.351Z,34.27
2023-08-22T14:08:31.984Z,33.70
2023-08-22T14:11:00.901Z,33.96
2023-08-22T14:13:28.382Z,33.53
2023-08-22T14:15:55.029Z,33.71
2023-08-22T14:18:21.749Z,33.59
2023-08-22T14:20:48.382Z,33.44
2023-08-22T14:23:15.050Z,33.89
2023-08-22T14:25:42.014Z,33.21
2023-08-22T14:28:08.723Z,33.39
2023-08-22T14:30:35.783Z,33.57
2023-08-22T14:33:04.241Z,33.82
2023-08-22T14:35:30.834Z,33.88
2023-08-22T14:37:57.475Z,33.88
2023-08-22T14:40:24.218Z,34.05
2023-08-22T14:42:51.256Z,33.88
2023-08-22T14:45:17.838Z,33.16
2023-08-22T14:47:44.867Z,33.77
2023-08-22T14:50:12.060Z,33.75
2023-08-22T14:52:38.685Z,34.06
2023-08-22T14:55:05.750Z,34.02
2023-08-22T14:57:32.419Z,33.64
2023-08-22T14:59:59.278Z,33.39
2023-08-22T15:02:25.896Z,33.64
2023-08-22T15:04:52.583Z,33.31
2023-08-22T15:07:19.558Z,32.89
2023-08-22T15:09:47.772Z,33.14
2023-08-22T15:12:16.303Z,33.04
2023-08-22T15:14:42.955Z,32.83
2023-08-22T15:17:09.812Z,33.23
2023-08-22T15:19:36.426Z,33.00
2023-08-22T15:22:03.645Z,33.35
2023-08-22T15:24:30.300Z,33.18
2023-08-22T15:26:56.861Z,33.40
2023-08-22T15:29:24.435Z,33.58
2023-08-22T15:31:51.138Z,33.77
2023-08-22T15:34:17.810Z,33.20
2023-08-22T15:36:44.628Z,32.77
2023-08-22T15:39:11.409Z,33.08
2023-08-22T15:41:38.204Z,33.19
2023-08-22T15:44:05.887Z,33.23
2023-08-22T15:46:32.780Z,33.01
2023-08-22T15:48:59.866Z,33.13
2023-08-22T15:51:26.682Z,33.04
2023-08-22T15:53:53.316Z,32.57
2023-08-22T15:56:20.130Z,32.86
2023-08-22T15:58:46.743Z,32.70
2023-08-22T16:01:13.441Z,32.80
2023-08-22T16:03:40.190Z,32.47
2023-08-22T16:06:06.996Z,32.62
2023-08-22T16:08:34.279Z,32.63
2023-08-22T16:11:01.496Z,32.92
2023-08-22T16:13:28.120Z,32.84
2023-08-22T16:15:54.727Z,32.84
2023-08-22T16:18:21.364Z,32.56
2023-08-22T16:20:53.179Z,32.47
2023-08-22T16:23:20.052Z,32.63
2023-08-22T16:25:46.774Z,32.67
2023-08-22T16:28:13.623Z,32.70
2023-08-22T16:30:40.771Z,32.60
2023-08-22T16:33:07.572Z,32.61
2023-08-22T16:35:34.445Z,32.68
2023-08-22T16:38:01.419Z,32.61
2023-08-22T16:40:28.392Z,32.50
2023-08-22T16:42:55.003Z,32.48
2023-08-22T16:45:21.932Z,32.54
2023-08-22T16:47:48.831Z,32.43
2023-08-22T16:50:15.801Z,32.44
2023-08-22T16:52:42.608Z,32.35
2023-08-22T16:55:09.738Z,32.39
2023-08-22T16:57:36.430Z,32.21
2023-08-22T17:00:05.084Z,32.32
2023-08-22T17:02:32.550Z,32.17
2023-08-22T17:04:59.656Z,32.08
2023-08-22T17:07:26.304Z,32.01
2023-08-22T17:09:52.952Z,31.95
2023-08-22T17:12:20.056Z,31.85
2023-08-22T17:14:46.805Z,31.89
2023-08-22T17:17:16.296Z,31.80
2023-08-22T17:19:42.917Z,31.81
2023-08-22T17:22:09.570Z,31.73
2023-08-22T17:24:36.339Z,31.60
2023-08-22T17:27:03.053Z,31.62
2023-08-22T17:29:30.005Z,31.45
2023-08-22T17:31:57.805Z,31.30
2023-08-22T17:34:24.583Z,31.22
2023-08-22T17:36:51.499Z,31.11
2023-08-22T17:39:19.432Z,30.94
2023-08-22T17:41:46.280Z,30.87
2023-08-22T17:44:12.999Z,30.69
2023-08-22T17:46:40.404Z,30.53
2023-08-22T17:49:07.075Z,30.61
2023-08-22T17:51:33.750Z,30.37
2023-08-22T17:54:00.666Z,30.39
2023-08-22T17:56:27.347Z,30.25
2023-08-22T17:58:53.991Z,30.15
2023-08-22T18:01:20.681Z,30.04
2023-08-22T18:03:47.433Z,29.93
2023-08-22T18:06:14.125Z,29.84
2023-08-22T18:08:42.342Z,29.64
2023-08-22T18:11:10.969Z,29.48
2023-08-22T18:13:38.341Z,29.40
2023-08-22T18:18:36.822Z,29.29
2023-08-22T18:21:05.012Z,29.19
2023-08-22T18:23:31.954Z,29.10
2023-08-22T18:26:03.718Z,29.10
2023-08-22T18:28:32.602Z,29.03
2023-08-22T18:31:10.376Z,28.89
2023-08-22T18:33:37.352Z,28.74
2023-08-22T18:36:04.058Z,28.89
2023-08-22T18:38:30.732Z,28.71
2023-08-22T18:40:58.653Z,28.70
2023-08-22T18:43:25.766Z,28.73
2023-08-22T18:45:52.447Z,28.60
2023-08-22T18:48:19.876Z,28.59
2023-08-22T18:50:49.075Z,28.54
2023-08-22T18:53:16.052Z,28.35
2023-08-22T18:55:42.692Z,28.33
2023-08-22T18:58:09.349Z,28.28
2023-08-22T19:00:36.198Z,28.15
2023-08-22T19:03:02.918Z,28.14
2023-08-22T19:05:29.953Z,28.06
2023-08-22T19:07:56.616Z,28.04
2023-08-22T19:10:24.366Z,28.02
2023-08-22T19:12:51.272Z,27.96
2023-08-22T19:15:18.243Z,27.85
2023-08-22T19:17:45.939Z,27.78
2023-08-22T19:20:13.349Z,27.78
2023-08-22T19:22:40.565Z,27.75
2023-08-22T19:25:07.748Z,27.52
2023-08-22T19:27:35.294Z,27.47
2023-08-22T19:30:03.116Z,27.53
2023-08-22T19:32:42.294Z,27.45
2023-08-22T19:35:19.014Z,27.50
2023-08-22T19:37:46.161Z,27.41
2023-08-22T19:40:13.398Z,27.40
2023-08-22T19:42:40.136Z,27.32
2023-08-22T19:45:07.290Z,27.41
2023-08-22T19:47:37.461Z,27.36
2023-08-22T19:50:05.834Z,27.33
2023-08-22T19:52:34.289Z,27.22
2023-08-22T19:55:00.933Z,27.07
2023-08-22T19:57:27.671Z,27.00
2023-08-22T19:59:57.538Z,27.03
2023-08-22T20:02:24.226Z,26.98
2023-08-22T20:04:51.235Z,26.88
2023-08-22T20:07:17.820Z,26.82
2023-08-22T20:09:44.450Z,26.85
2023-08-22T20:12:11.190Z,26.81
2023-08-22T20:14:39.319Z,26.70
2023-08-22T20:17:05.933Z,26.68
2023-08-22T20:19:33.193Z,26.71
2023-08-22T20:22:02.953Z,26.66
2023-08-22T20:24:29.969Z,26.65
2023-08-22T20:27:07.115Z,26.60
2023-08-22T20:29:34.096Z,26.45
2023-08-22T20:32:00.713Z,26.43
2023-08-22T20:34:28.307Z,26.37
2023-08-22T20:36:59.369Z,26.29
2023-08-22T20:39:29.574Z,26.27
2023-08-22T20:41:56.784Z,26.21
2023-08-22T20:44:23.523Z,26.24
2023-08-22T20:46:51.207Z,26.12
2023-08-22T20:49:18.377Z,26.11
2023-08-22T20:51:45.136Z,26.02
2023-08-22T20:54:11.758Z,26.02
2023-08-22T20:56:38.413Z,25.99
2023-08-22T20:59:05.024Z,25.87
2023-08-22T21:01:31.857Z,25.79
2023-08-22T21:03:59.587Z,25.78
2023-08-22T21:06:26.397Z,25.83
2023-08-22T21:08:53.649Z,25.76
2023-08-22T21:11:20.280Z,25.78
2023-08-22T21:13:46.948Z,25.79
2023-08-22T21:16:13.621Z,25.75
2023-08-22T21:18:40.377Z,25.69
2023-08-22T21:21:07.239Z,25.77
2023-08-22T21:23:33.898Z,25.68
2023-08-22T21:26:00.957Z,25.68
2023-08-22T21:28:27.627Z,25.58
2023-08-22T21:30:54.809Z,25.55
2023-08-22T21:33:21.553Z,25.54
2023-08-22T21:35:51.083Z,25.37
2023-08-22T21:38:17.646Z,25.37
2023-08-22T21:40:48.288Z,25.11
2023-08-22T21:43:15.611Z,25.01
2023-08-22T21:45:42.442Z,25.22
2023-08-22T21:48:09.542Z,25.27
2023-08-22T21:50:36.242Z,25.30
2023-08-22T21:53:02.859Z,25.30
2023-08-22T21:55:29.586Z,25.35
2023-08-22T21:57:56.441Z,25.35
2023-08-22T22:00:23.142Z,25.37
2023-08-22T22:02:50.083Z,25.33
2023-08-22T22:05:17.245Z,25.25
2023-08-22T22:07:44.220Z,25.27
2023-08-22T22:10:11.098Z,25.20
2023-08-22T22:12:38.159Z,25.19
2023-08-22T22:15:05.758Z,24.91
2023-08-22T22:17:32.457Z,24.79
2023-08-22T22:19:59.253Z,24.98
2023-08-22T22:22:26.010Z,25.00
2023-08-22T22:24:54.895Z,25.13
2023-08-22T22:27:21.572Z,24.99
2023-08-22T22:29:48.244Z,24.80
2023-08-22T22:32:17.412Z,25.04
2023-08-22T22:34:44.380Z,25.02
2023-08-22T22:37:11.200Z,25.10
2023-08-22T22:39:37.791Z,25.01
2023-08-22T22:42:04.628Z,24.83
2023-08-22T22:44:31.241Z,24.86
2023-08-22T22:46:57.896Z,24.89
2023-08-22T22:49:24.793Z,24.86
2023-08-22T22:51:51.463Z,24.76
2023-08-22T22:54:18.065Z,24.59
2023-08-22T22:56:44.681Z,24.81
2023-08-22T22:59:12.636Z,24.62
2023-08-22T23:01:39.287Z,24.58
2023-08-22T23:04:05.875Z,24.79
2023-08-22T23:06:32.465Z,24.57
2023-08-22T23:08:59.111Z,24.75
2023-08-22T23:11:31.700Z,24.83
2023-08-22T23:14:06.716Z,24.69
2023-08-22T23:16:33.419Z,24.69
2023-08-22T23:19:00.312Z,24.71
2023-08-22T23:21:26.940Z,24.74
2023-08-22T23:23:53.589Z,24.79
2023-08-22T23:26:20.255Z,24.71
2023-08-22T23:28:46.863Z,24.80
2023-08-22T23:31:13.552Z,24.80
2023-08-22T23:33:40.282Z,24.85
2023-08-22T23:36:07.173Z,24.83
2023-08-22T23:38:33.781Z,24.69
2023-08-22T23:41:00.438Z,24.76
2023-08-22T23:43:27.036Z,24.73
2023-08-22T23:45:53.676Z,24.74
2023-08-22T23:48:20.360Z,24.73
2023-08-22T23:50:47.144Z,24.79
2023-08-22T23:53:14.334Z,24.81
2023-08-22T23:55:40.990Z,24.82
2023-08-22T23:58:07.600Z,24.86
